EZY74W EKCH-EDDB
Flight info
| Callsign | EZY74W |
|---|---|
| Flight time | 0h 41m |
| Altitude | 35000 |
| Route | SALLO1C SALLO M44 KOGIM M725 RODEP T280 KETAP KETAP1L |
| Aircraft | A20N/M-SDE2E3FGHIRWXY/LB1 |
Departure
| Time | 2026-05-04 14:44 |
|---|---|
| Airport | Copenhagen Kastrup Airport (EKCH) |
Arrival
| Time | 2026-05-04 15:25 |
|---|---|
| Airport | Berlin Brandenburg Airport (EDDB) |
| Time | Latitude | Longitude | Altitude | Speed | Heading |
|---|---|---|---|---|---|
| 2026-05-04 14:21 | 55.62559 | 12.65965 | 18 ft | 0 kts | 303° |
| 2026-05-04 14:33 | 55.62559 | 12.65966 | 18 ft | 1 kts | 303° |
| 2026-05-04 14:34 | 55.62550 | 12.65990 | 18 ft | 2 kts | 304° |
| 2026-05-04 14:34 | 55.62541 | 12.66015 | 18 ft | 2 kts | 303° |
| 2026-05-04 14:34 | 55.62532 | 12.66039 | 18 ft | 2 kts | 302° |
| 2026-05-04 14:34 | 55.62523 | 12.66064 | 19 ft | 2 kts | 300° |
| 2026-05-04 14:35 | 55.62516 | 12.66091 | 19 ft | 2 kts | 287° |
| 2026-05-04 14:35 | 55.62516 | 12.66113 | 21 ft | 1 kts | 218° |
| 2026-05-04 14:38 | 55.62515 | 12.66111 | 17 ft | 1 kts | 218° |
| 2026-05-04 14:39 | 55.62489 | 12.66072 | 18 ft | 9 kts | 222° |
| 2026-05-04 14:39 | 55.62449 | 12.65941 | 16 ft | 15 kts | 269° |
| 2026-05-04 14:39 | 55.62447 | 12.65741 | 17 ft | 17 kts | 268° |
| 2026-05-04 14:40 | 55.62439 | 12.65320 | 19 ft | 13 kts | 268° |
| 2026-05-04 14:40 | 55.62398 | 12.65192 | 19 ft | 13 kts | 189° |
| 2026-05-04 14:40 | 55.62300 | 12.65198 | 20 ft | 14 kts | 175° |
| 2026-05-04 14:40 | 55.62205 | 12.65165 | 26 ft | 14 kts | 224° |
| 2026-05-04 14:41 | 55.62116 | 12.65073 | 23 ft | 17 kts | 210° |
| 2026-05-04 14:41 | 55.62007 | 12.64943 | 20 ft | 19 kts | 216° |
| 2026-05-04 14:41 | 55.61762 | 12.64668 | 21 ft | 21 kts | 214° |
| 2026-05-04 14:42 | 55.61654 | 12.64500 | 23 ft | 7 kts | 262° |
| 2026-05-04 14:42 | 55.61649 | 12.64393 | 24 ft | 11 kts | 266° |
| 2026-05-04 14:42 | 55.61644 | 12.64239 | 26 ft | 13 kts | 267° |
| 2026-05-04 14:43 | 55.61627 | 12.64077 | 28 ft | 14 kts | 243° |
| 2026-05-04 14:43 | 55.61542 | 12.63938 | 26 ft | 21 kts | 221° |
| 2026-05-04 14:43 | 55.61317 | 12.63580 | 26 ft | 74 kts | 221° |
| 2026-05-04 14:43 | 55.60762 | 12.62728 | 27 ft | 133 kts | 220° |
| 2026-05-04 14:44 | 55.59994 | 12.61602 | 382 ft | 146 kts | 225° |
| 2026-05-04 14:44 | 55.59184 | 12.60366 | 732 ft | 163 kts | 225° |
| 2026-05-04 14:44 | 55.58300 | 12.58970 | 1065 ft | 179 kts | 225° |
| 2026-05-04 14:44 | 55.57306 | 12.57380 | 1360 ft | 204 kts | 226° |
| 2026-05-04 14:45 | 55.56158 | 12.55682 | 1848 ft | 227 kts | 214° |
| 2026-05-04 14:45 | 55.54596 | 12.54561 | 2381 ft | 252 kts | 202° |
| 2026-05-04 14:45 | 55.52914 | 12.53578 | 3338 ft | 256 kts | 202° |
| 2026-05-04 14:45 | 55.51201 | 12.52596 | 4450 ft | 259 kts | 202° |
| 2026-05-04 14:46 | 55.49489 | 12.51616 | 5671 ft | 260 kts | 202° |
| 2026-05-04 14:46 | 55.47764 | 12.50624 | 6817 ft | 262 kts | 203° |
| 2026-05-04 14:46 | 55.45997 | 12.49789 | 7870 ft | 271 kts | 190° |
| 2026-05-04 14:46 | 55.44079 | 12.50215 | 8957 ft | 286 kts | 164° |
| 2026-05-04 14:47 | 55.42376 | 12.52143 | 9987 ft | 302 kts | 138° |
| 2026-05-04 14:47 | 55.41160 | 12.55317 | 10642 ft | 328 kts | 116° |
| 2026-05-04 14:47 | 55.40422 | 12.59285 | 11046 ft | 355 kts | 106° |
| 2026-05-04 14:47 | 55.39845 | 12.63625 | 11637 ft | 370 kts | 104° |
| 2026-05-04 14:48 | 55.39247 | 12.68062 | 12534 ft | 375 kts | 106° |
| 2026-05-04 14:48 | 55.38578 | 12.72534 | 13427 ft | 381 kts | 107° |
| 2026-05-04 14:48 | 55.37846 | 12.77049 | 14257 ft | 386 kts | 108° |
| 2026-05-04 14:48 | 55.37063 | 12.81666 | 15067 ft | 391 kts | 109° |
| 2026-05-04 14:49 | 55.36268 | 12.86266 | 15864 ft | 396 kts | 109° |
| 2026-05-04 14:49 | 55.35458 | 12.90920 | 16650 ft | 401 kts | 109° |
| 2026-05-04 14:49 | 55.34635 | 12.95631 | 17404 ft | 406 kts | 110° |
| 2026-05-04 14:49 | 55.33468 | 13.00140 | 18153 ft | 405 kts | 127° |
| 2026-05-04 14:50 | 55.31631 | 13.03822 | 18830 ft | 399 kts | 145° |
| 2026-05-04 14:50 | 55.29324 | 13.06435 | 19529 ft | 394 kts | 159° |
| 2026-05-04 14:50 | 55.26842 | 13.08477 | 20232 ft | 395 kts | 162° |
| 2026-05-04 14:50 | 55.24320 | 13.10429 | 20947 ft | 398 kts | 162° |
| 2026-05-04 14:51 | 55.21791 | 13.12455 | 21635 ft | 402 kts | 161° |
| 2026-05-04 14:51 | 55.19255 | 13.14581 | 22332 ft | 406 kts | 161° |
| 2026-05-04 14:51 | 55.16710 | 13.16775 | 23023 ft | 409 kts | 160° |
| 2026-05-04 14:51 | 55.14151 | 13.19012 | 23660 ft | 413 kts | 160° |
| 2026-05-04 14:52 | 55.11572 | 13.21274 | 24224 ft | 416 kts | 161° |
| 2026-05-04 14:52 | 55.08975 | 13.23553 | 24781 ft | 419 kts | 161° |
| 2026-05-04 14:52 | 55.06365 | 13.25839 | 25338 ft | 422 kts | 161° |
| 2026-05-04 14:52 | 55.03734 | 13.28139 | 25862 ft | 425 kts | 161° |
| 2026-05-04 14:53 | 55.01083 | 13.30451 | 26379 ft | 427 kts | 161° |
| 2026-05-04 14:53 | 54.98418 | 13.32771 | 26910 ft | 430 kts | 162° |
| 2026-05-04 14:53 | 54.95727 | 13.35109 | 27385 ft | 433 kts | 162° |
| 2026-05-04 14:53 | 54.92952 | 13.37302 | 27847 ft | 430 kts | 167° |
| 2026-05-04 14:54 | 54.90123 | 13.38895 | 28314 ft | 426 kts | 174° |
| 2026-05-04 14:54 | 54.87237 | 13.39898 | 28754 ft | 422 kts | 180° |
| 2026-05-04 14:54 | 54.85310 | 13.40395 | 29024 ft | 424 kts | 180° |
| 2026-05-04 14:54 | 54.82384 | 13.41154 | 29423 ft | 427 kts | 179° |
| 2026-05-04 14:55 | 54.79388 | 13.41942 | 29831 ft | 431 kts | 179° |
| 2026-05-04 14:55 | 54.76413 | 13.42734 | 30191 ft | 434 kts | 179° |
| 2026-05-04 14:55 | 54.73429 | 13.43530 | 30541 ft | 437 kts | 179° |
| 2026-05-04 14:55 | 54.70412 | 13.44336 | 30890 ft | 439 kts | 179° |
| 2026-05-04 14:56 | 54.67385 | 13.45145 | 31296 ft | 440 kts | 179° |
| 2026-05-04 14:56 | 54.64358 | 13.45956 | 31768 ft | 440 kts | 179° |
| 2026-05-04 14:56 | 54.61338 | 13.46765 | 32256 ft | 439 kts | 179° |
| 2026-05-04 14:56 | 54.58322 | 13.47571 | 32770 ft | 437 kts | 179° |
| 2026-05-04 14:57 | 54.55322 | 13.48370 | 33255 ft | 435 kts | 179° |
| 2026-05-04 14:57 | 54.52342 | 13.49163 | 33760 ft | 433 kts | 179° |
| 2026-05-04 14:57 | 54.49364 | 13.49951 | 34193 ft | 432 kts | 179° |
| 2026-05-04 14:57 | 54.46394 | 13.50707 | 34511 ft | 432 kts | 179° |
| 2026-05-04 14:58 | 54.43421 | 13.51449 | 34794 ft | 433 kts | 179° |
| 2026-05-04 14:58 | 54.40441 | 13.52192 | 34890 ft | 432 kts | 179° |
| 2026-05-04 14:58 | 54.34508 | 13.53680 | 34944 ft | 431 kts | 179° |
| 2026-05-04 14:59 | 54.28574 | 13.55186 | 34940 ft | 431 kts | 178° |
| 2026-05-04 14:59 | 54.22637 | 13.56754 | 34741 ft | 432 kts | 178° |
| 2026-05-04 15:00 | 54.19675 | 13.57537 | 34495 ft | 429 kts | 178° |
| 2026-05-04 15:00 | 54.16730 | 13.58312 | 34254 ft | 428 kts | 179° |
| 2026-05-04 15:00 | 54.13785 | 13.59078 | 34015 ft | 428 kts | 179° |
| 2026-05-04 15:01 | 54.07897 | 13.60599 | 33465 ft | 429 kts | 179° |
| 2026-05-04 15:01 | 54.04929 | 13.61363 | 33182 ft | 431 kts | 179° |
| 2026-05-04 15:01 | 54.01958 | 13.62128 | 32896 ft | 432 kts | 179° |
| 2026-05-04 15:01 | 53.98983 | 13.62893 | 32335 ft | 435 kts | 179° |
| 2026-05-04 15:02 | 53.95927 | 13.63676 | 31392 ft | 441 kts | 179° |
| 2026-05-04 15:02 | 53.92872 | 13.64461 | 30504 ft | 444 kts | 178° |
| 2026-05-04 15:02 | 53.89842 | 13.65493 | 29936 ft | 441 kts | 175° |
| 2026-05-04 15:02 | 53.86876 | 13.66581 | 29443 ft | 432 kts | 175° |
| 2026-05-04 15:03 | 53.83970 | 13.67639 | 28832 ft | 425 kts | 175° |
| 2026-05-04 15:03 | 53.81085 | 13.68682 | 28237 ft | 420 kts | 175° |
| 2026-05-04 15:03 | 53.78251 | 13.69701 | 27638 ft | 415 kts | 175° |
| 2026-05-04 15:03 | 53.75441 | 13.70708 | 27049 ft | 410 kts | 175° |
| 2026-05-04 15:04 | 53.72664 | 13.71699 | 26460 ft | 406 kts | 175° |
| 2026-05-04 15:04 | 53.69909 | 13.72573 | 25876 ft | 399 kts | 179° |
| 2026-05-04 15:04 | 53.67175 | 13.72929 | 25309 ft | 389 kts | 186° |
| 2026-05-04 15:04 | 53.64493 | 13.72771 | 24744 ft | 382 kts | 190° |
| 2026-05-04 15:05 | 53.61850 | 13.72471 | 24174 ft | 379 kts | 190° |
| 2026-05-04 15:05 | 53.59222 | 13.72184 | 23622 ft | 377 kts | 190° |
| 2026-05-04 15:05 | 53.56612 | 13.71909 | 23012 ft | 374 kts | 189° |
| 2026-05-04 15:05 | 53.54031 | 13.71644 | 22478 ft | 369 kts | 189° |
| 2026-05-04 15:06 | 53.51482 | 13.71385 | 21932 ft | 365 kts | 189° |
| 2026-05-04 15:06 | 53.48964 | 13.71129 | 21391 ft | 361 kts | 189° |
| 2026-05-04 15:06 | 53.46461 | 13.70874 | 20853 ft | 358 kts | 189° |
| 2026-05-04 15:07 | 53.41529 | 13.70372 | 19777 ft | 352 kts | 189° |
| 2026-05-04 15:07 | 53.39092 | 13.70125 | 19250 ft | 350 kts | 189° |
| 2026-05-04 15:07 | 53.36666 | 13.69879 | 18714 ft | 348 kts | 189° |
| 2026-05-04 15:07 | 53.34245 | 13.69634 | 18138 ft | 348 kts | 189° |
| 2026-05-04 15:08 | 53.31850 | 13.69391 | 17611 ft | 344 kts | 189° |
| 2026-05-04 15:08 | 53.29458 | 13.69150 | 17071 ft | 341 kts | 188° |
| 2026-05-04 15:08 | 53.27104 | 13.68913 | 16563 ft | 339 kts | 188° |
| 2026-05-04 15:08 | 53.24756 | 13.68675 | 16037 ft | 336 kts | 188° |
| 2026-05-04 15:09 | 53.22429 | 13.68440 | 15518 ft | 335 kts | 188° |
| 2026-05-04 15:09 | 53.20106 | 13.68206 | 15002 ft | 333 kts | 188° |
| 2026-05-04 15:09 | 53.17801 | 13.67974 | 14484 ft | 331 kts | 187° |
| 2026-05-04 15:10 | 53.13211 | 13.67511 | 13435 ft | 329 kts | 187° |
| 2026-05-04 15:10 | 53.10934 | 13.67283 | 12923 ft | 326 kts | 187° |
| 2026-05-04 15:10 | 53.06411 | 13.66834 | 11917 ft | 321 kts | 187° |
| 2026-05-04 15:11 | 53.04219 | 13.66615 | 11423 ft | 319 kts | 187° |
| 2026-05-04 15:11 | 53.02012 | 13.66395 | 10928 ft | 316 kts | 187° |
| 2026-05-04 15:11 | 52.99793 | 13.66173 | 10432 ft | 314 kts | 187° |
| 2026-05-04 15:11 | 52.97633 | 13.65959 | 10175 ft | 305 kts | 187° |
| 2026-05-04 15:12 | 52.95532 | 13.65757 | 10043 ft | 291 kts | 187° |
| 2026-05-04 15:12 | 52.93567 | 13.65566 | 9781 ft | 284 kts | 187° |
| 2026-05-04 15:12 | 52.91624 | 13.65475 | 9563 ft | 276 kts | 184° |
| 2026-05-04 15:12 | 52.89688 | 13.65470 | 9511 ft | 281 kts | 184° |
| 2026-05-04 15:13 | 52.87738 | 13.65456 | 9457 ft | 279 kts | 184° |
| 2026-05-04 15:13 | 52.85800 | 13.65442 | 9400 ft | 278 kts | 184° |
| 2026-05-04 15:13 | 52.83837 | 13.65430 | 9343 ft | 278 kts | 184° |
| 2026-05-04 15:13 | 52.81895 | 13.65450 | 9285 ft | 280 kts | 179° |
| 2026-05-04 15:14 | 52.79975 | 13.66031 | 9226 ft | 284 kts | 166° |
| 2026-05-04 15:14 | 52.78161 | 13.67377 | 9104 ft | 287 kts | 156° |
| 2026-05-04 15:14 | 52.76404 | 13.68919 | 8899 ft | 285 kts | 155° |
| 2026-05-04 15:14 | 52.74669 | 13.70477 | 8608 ft | 282 kts | 155° |
| 2026-05-04 15:15 | 52.72907 | 13.72037 | 8481 ft | 285 kts | 155° |
| 2026-05-04 15:15 | 52.71156 | 13.73562 | 8354 ft | 283 kts | 156° |
| 2026-05-04 15:15 | 52.69415 | 13.75059 | 8224 ft | 283 kts | 156° |
| 2026-05-04 15:16 | 52.65924 | 13.78032 | 7969 ft | 282 kts | 156° |
| 2026-05-04 15:16 | 52.64160 | 13.79530 | 7764 ft | 283 kts | 156° |
| 2026-05-04 15:16 | 52.60689 | 13.82471 | 7010 ft | 276 kts | 155° |
| 2026-05-04 15:17 | 52.58972 | 13.83925 | 6635 ft | 279 kts | 155° |
| 2026-05-04 15:17 | 52.55529 | 13.86843 | 5859 ft | 277 kts | 155° |
| 2026-05-04 15:17 | 52.53817 | 13.88292 | 5519 ft | 274 kts | 155° |
| 2026-05-04 15:18 | 52.52178 | 13.89682 | 5365 ft | 257 kts | 155° |
| 2026-05-04 15:18 | 52.50611 | 13.91007 | 5090 ft | 252 kts | 155° |
| 2026-05-04 15:18 | 52.49071 | 13.92306 | 4909 ft | 242 kts | 156° |
| 2026-05-04 15:19 | 52.46116 | 13.92264 | 4695 ft | 210 kts | 216° |
| 2026-05-04 15:19 | 52.45107 | 13.90567 | 4602 ft | 208 kts | 238° |
| 2026-05-04 15:19 | 52.43886 | 13.86305 | 4365 ft | 208 kts | 250° |
| 2026-05-04 15:20 | 52.43370 | 13.84097 | 4138 ft | 208 kts | 250° |
| 2026-05-04 15:20 | 52.42847 | 13.81891 | 3896 ft | 207 kts | 250° |
| 2026-05-04 15:20 | 52.42327 | 13.79692 | 3638 ft | 208 kts | 250° |
| 2026-05-04 15:20 | 52.41802 | 13.77476 | 3382 ft | 208 kts | 250° |
| 2026-05-04 15:21 | 52.41448 | 13.75981 | 3203 ft | 207 kts | 250° |
| 2026-05-04 15:21 | 52.40934 | 13.73810 | 2921 ft | 202 kts | 250° |
| 2026-05-04 15:21 | 52.39961 | 13.69701 | 2441 ft | 185 kts | 250° |
| 2026-05-04 15:22 | 52.39517 | 13.67825 | 2181 ft | 167 kts | 250° |
| 2026-05-04 15:22 | 52.39117 | 13.66136 | 1972 ft | 149 kts | 251° |
| 2026-05-04 15:22 | 52.38426 | 13.63221 | 1606 ft | 126 kts | 251° |
| 2026-05-04 15:23 | 52.38121 | 13.61932 | 1443 ft | 120 kts | 251° |
| 2026-05-04 15:23 | 52.37819 | 13.60645 | 1283 ft | 122 kts | 251° |
| 2026-05-04 15:23 | 52.37499 | 13.59302 | 1127 ft | 130 kts | 250° |
| 2026-05-04 15:23 | 52.37177 | 13.57946 | 932 ft | 122 kts | 252° |
| 2026-05-04 15:24 | 52.36560 | 13.55341 | 583 ft | 124 kts | 251° |
| 2026-05-04 15:24 | 52.35947 | 13.52738 | 269 ft | 122 kts | 252° |
| 2026-05-04 15:25 | 52.35645 | 13.51419 | 168 ft | 120 kts | 249° |
| 2026-05-04 15:25 | 52.35408 | 13.50435 | 158 ft | 53 kts | 247° |
| 2026-05-04 15:25 | 52.35329 | 13.50127 | 155 ft | 22 kts | 247° |
| 2026-05-04 15:26 | 52.35235 | 13.49729 | 158 ft | 23 kts | 256° |
| 2026-05-04 15:26 | 52.35235 | 13.49475 | 161 ft | 23 kts | 272° |
| 2026-05-04 15:26 | 52.35261 | 13.49276 | 163 ft | 3 kts | 303° |
| 2026-05-04 15:27 | 52.35295 | 13.49241 | 153 ft | 10 kts | 335° |
| 2026-05-04 15:27 | 52.35454 | 13.49282 | 158 ft | 15 kts | 72° |
| 2026-05-04 15:28 | 52.35548 | 13.49655 | 156 ft | 3 kts | 73° |
| 2026-05-04 15:28 | 52.35585 | 13.49813 | 155 ft | 8 kts | 62° |
| 2026-05-04 15:28 | 52.35660 | 13.50138 | 157 ft | 21 kts | 68° |
| 2026-05-04 15:29 | 52.35715 | 13.50376 | 157 ft | 21 kts | 69° |
| 2026-05-04 15:30 | 52.36045 | 13.50672 | 154 ft | 12 kts | 6° |
| 2026-05-04 15:30 | 52.36107 | 13.50825 | 156 ft | 0 kts | 65° |